Easton, Missouri
Current Conditions -  °F | °C
As of 12:22 AM on Friday 19 Dec 2014 (Local Time) from KSTJ Reporting Station
Haze Haze  
Wind Chill: 31°   Ceiling: 1000
Heat Index: 31°   Visibility: 5mi
Dew Point: 29°   Wind: 0mph
Humidity: 92%   Direction: NA
Pressure: 30.28"   Gusts: NA
Location:  39.72°N, 94.64°W
Report Text: KSTJ 190622Z AUTO 00000KT 5SM BR OVC010 M01/M02 A3028 RMK AO2 T10061017
Loading
Personal Weather Stations






























Interactive Weather Map New forecast layout! Learn more

10-Day Weather Forecast

Advertisements
Track Severe Weather on mobile